Pioche, Nevada Weather observations

Data are for observation ending at time listed.
 Day   Time    Ave.   Ave.  Ave.  Vector   Max.   Stn.    Total    Solar   Ave.  
  of    of     Air    Rel.  Wind   Wind    Wind   Baro.  Precip.   Rad.    Soil  
Year   Day     Temp.  Hum.  Speed  Dir.    Gust   Pres.                    Temp. 
2015   (PST)    F      %     mph   deg.    mph     mb.     in.     W/m2     F   
------------------------------------------------------------------------------
 117    0:00   37.5    47    8.1   288     12.6   821.3    0.00       0    50.5
 117    0:10   37.1    48    8.4   286     12.1   821.3    0.00       0    50.5
 117    0:20   36.9    48    8.3   286     12.2   821.3    0.00       0    50.4
 117    0:30   37.0    48    7.8   286     12.3   821.3    0.00       0    50.4
 117    0:40   37.0    48    8.5   288     11.9   821.3    0.00       0    50.3
 117    0:50   36.6    48    8.6   288     12.3   821.1    0.00       0    50.3
 117    1:00   36.3    49    9.2   291     13.7   821.1    0.00       0    50.2
 117    1:10   36.0    50    9.3   291     13.1   821.2    0.00       0    50.2
 117    1:20   35.9    50    7.8   287     12.4   821.3    0.00       0    50.1
 117    1:30   35.7    51    7.5   289     11.8   821.4    0.00       0    50.0
 117    1:40   35.6    51    7.9   285     11.8   821.4    0.00       0    49.9
 117    1:50   35.5    51    7.0   287     10.6   821.4    0.00       0    49.9
 117    2:00   35.6    51    7.2   285     11.5   821.5    0.00       0    49.9
 117    2:10   35.5    51    7.3   288     13.2   821.5    0.00       0    49.8
 117    2:20   35.4    51    6.2   284     10.7   821.5    0.00       0    49.7
 117    2:30   35.3    51    4.6   278      9.9   821.6    0.00       0    49.6
 117    2:40   35.1    52    6.8   279     11.2   821.5    0.00       0    49.6
 117    2:50   35.2    52    6.7   283      9.8   821.5    0.00       0    49.5
 117    3:00   35.3    51    7.8   283     11.1   821.6    0.00       0    49.4
 117    3:10   35.4    51    7.3   284     11.2   821.6    0.00       0    49.4
 117    3:20   35.3    51    7.1   283     10.7   821.6    0.00       0    49.3
 117    3:30   35.1    52    6.8   278     10.4   821.6    0.00       0    49.3
 117    3:40   34.9    52    6.6   277     10.4   821.6    0.00       0    49.2
 117    3:50   35.0    52    7.6   275     11.5   821.7    0.00       0    49.2
 117    4:00   35.0    52    7.3   275     11.8   821.8    0.00       0    49.1
 117    4:10   34.9    52    7.7   275     12.1   821.9    0.00       0    49.0
 117    4:20   34.9    52    7.2   276     12.2   822.0    0.00       0    49.0
 117    4:30   34.7    53    7.5   280     11.1   822.0    0.00       0    48.9
 117    4:40   34.7    53    7.0   279     11.6   822.2    0.00       0    48.9
 117    4:50   34.7    53    7.1   282     11.4   822.2    0.00       5    48.8
 117    5:00   34.8    52    7.2   282     12.4   822.3    0.00       9    48.8
 117    5:10   35.0    52    7.8   288     15.1   822.3    0.00      12    48.7
 117    5:20   35.3    52    7.2   290     10.0   822.4    0.00      14    48.7
 117    5:30   35.7    52    7.6   295     10.5   822.5    0.00      19    48.6
 117    5:40   36.3    51    7.1   300     10.7   822.5    0.00      20    48.5
 117    5:50   37.1    50    6.9   295     11.0   822.5    0.00      34    48.5
 117    6:00   37.9    48    8.1   301     12.2   822.5    0.00     213    48.5
 117    6:10   39.3    46    8.1   303     13.3   822.6    0.00     252    48.4
 117    6:20   39.9    45    8.6   303     13.9   822.6    0.00     293    48.4
 117    6:30   40.7    44    8.8   310     14.5   822.8    0.00     331    48.3
 117    6:40   41.3    43    8.7   309     14.2   822.9    0.00     371    48.3
 117    6:50   41.7    43    9.7   313     14.8   823.1    0.00     410    48.3
 117    7:00   42.5    42    9.2   308     15.2   823.2    0.00     449    48.2
 117    7:10   43.1    41    9.2   308     13.7   823.2    0.00     488    48.2
 117    7:20   44.2    39    7.7   308     12.0   823.3    0.00     524    48.2
 117    7:30   45.2    37    6.5   319     10.8   823.3    0.00     561    48.1
 117    7:40   45.8    37    7.1   316     12.1   823.4    0.00     597    48.1
 117    7:50   46.2    36    7.0   315     11.3   823.4    0.00     634    48.1
 117    8:00   47.0    34    5.8   321     10.6   823.4    0.00     668    48.1
 117    8:10   48.1    33    5.7   330     11.0   823.4    0.00     699    48.1
 117    8:20   50.1    31    2.1   352     10.9   823.6    0.00     731    48.1
 117    8:30   50.4    31    4.1   340     15.3   823.6    0.00     761    48.1
 117    8:40   50.7    30    3.5    32     10.6   823.6    0.00     791    48.2
 117    8:50   51.0    30    3.9    24     12.5   823.6    0.00     820    48.1
 117    9:00   51.2    30    3.1    44      9.4   823.7    0.00     849    48.2
 117    9:10   52.2    29    3.5   330     13.0   823.8    0.00     875    48.2
 117    9:20   52.4    29    3.3   326     10.0   823.7    0.00     897    48.2
 117    9:30   53.8    29    2.3    52      8.9   823.6    0.00     920    48.2
 117    9:40   53.6    28    2.3    30     10.8   823.7    0.00     943    48.3
 117    9:50   53.6    28    4.8   332     13.8   823.7    0.00     962    48.3
 117   10:00   53.1    28    7.0   326     12.3   823.5    0.00     980    48.4
 117   10:10   53.7    27    3.4   329      7.2   823.4    0.00     995    48.4
 117   10:20   54.9    28    3.5   338      9.5   823.4    0.00    1012    48.5
 117   10:30   55.3    27    3.8    46     11.2   823.4    0.00    1026    48.5
 117   10:40   56.0    27    2.2    25      7.7   823.4    0.00    1037    48.6
 117   10:50   56.6    27    4.5    68     14.0   823.3    0.00    1047    48.7
 117   11:00   56.5    26    6.0   331     14.9   823.3    0.00    1055    48.8
 117   11:10   56.4    27    5.8   324     14.7   823.3    0.00    1062    48.9
 117   11:20   56.4    26    7.6   329     15.9   823.3    0.00    1066    49.0
 117   11:30   56.4    26    5.8   326     15.1   823.2    0.00    1067    49.2
 117   11:40   58.1    26    3.4    31     12.2   823.1    0.00    1069    49.3
 117   11:50   58.2    26    5.4   336     15.6   823.1    0.00    1068    49.4
 117   12:00   58.2    26    4.0   335     12.6   823.1    0.00    1064    49.6
 117   12:10   58.2    26    4.6   326     11.1   823.1    0.00    1059    49.8
 117   12:20   59.6    25    2.3   343     10.8   823.0    0.00    1053    50.0
 117   12:30   60.2    24    2.6   348      8.6   823.0    0.00    1046    50.1
 117   12:40   59.6    24    6.3   329     11.1   822.8    0.00    1035    50.4
 117   12:50   60.4    24    2.8   352     10.9   822.8    0.00    1022    50.5
 117   13:00   62.1    23    2.5   335      8.4   822.7    0.00    1009    50.8
 117   13:10   62.3    23    3.0   340     11.0   822.7    0.00     993    50.9
 117   13:20   61.8    22    1.7    43      6.4   822.5    0.00     978    51.2
 117   13:30   61.7    22    2.1    15     11.7   822.4    0.00     959    51.3
 117   13:40   62.1    22    2.3   359      7.2   822.3    0.00     934    51.5
 117   13:50   62.2    22    2.9    77      9.3   822.2    0.00     914    51.8
 117   14:00   63.0    21    2.5    76      6.8   822.2    0.00     879    52.0
 117   14:10   62.7    22    5.1   316     11.5   822.0    0.00     816    52.3
 117   14:20   61.3    22    8.0   318     12.3   822.0    0.00     684    52.5
 117   14:30   61.9    22    4.6   324      9.9   821.9    0.00     821    52.8
 117   14:40   62.9    21    4.5   333     13.8   821.8    0.00     781    53.1
 117   14:50   62.8    20    3.6   320      7.6   821.8    0.00     749    53.3
 117   15:00   63.4    21    5.8   318     11.5   821.8    0.00     724    53.6
 117   15:10   63.1    20    4.6   320     10.0   821.9    0.00     690    53.9
 117   15:20   63.3    20    4.5   327     12.3   821.8    0.00     659    54.1
 117   15:30   63.6    20    3.4   336     11.2   821.8    0.00     618    54.4
 117   15:40   63.2    20    4.7   326     14.8   821.8    0.00     587    54.6
 117   15:50   62.2    22    2.9   334     10.9   821.7    0.00     531    54.9
 117   16:00   62.4    22    2.6   353     11.2   821.6    0.00     339    55.2
 117   16:10   61.8    22    4.7   333     14.2   821.7    0.00     149    55.4
 117   16:20   61.4    22    3.0   340     13.7   821.7    0.00     119    55.6
 117   16:30   61.1    22    3.5   340     11.8   821.7    0.00     142    55.8
 117   16:40   61.0    21    2.7   344     11.5   821.7    0.00     168    56.0
 117   16:50   61.1    21    3.0   342     12.2   821.8    0.00     178    56.2
 117   17:00   61.1    20    4.6   330     14.5   821.8    0.00     287    56.4
 117   17:10   60.7    21    4.0   338     10.2   821.8    0.00     250    56.5
 117   17:20   60.9    20    3.6   341      9.9   821.8    0.00     212    56.6
 117   17:30   60.3    22    4.2   339      9.9   821.9    0.00     144    56.7
 117   17:40   59.4    22    3.4   347      8.1   821.9    0.00     128    56.9
 117   17:50   59.4    23    2.2   342      7.2   822.0    0.00     101    56.9
 117   18:00   58.7    24    3.3   339      7.5   822.1    0.00      62    57.0
 117   18:10   57.6    24    3.5   338      8.8   822.2    0.00      30    57.1
 117   18:20   56.2    26    3.2   338      7.6   822.2    0.00       9    57.2
 117   18:30   55.0    28    2.8   328      5.3   822.3    0.00       5    57.3
 117   18:40   53.8    30    2.2   323      4.5   822.4    0.00       1    57.3
 117   18:50   53.0    30    1.5   313      3.4   822.5    0.00       0    57.4
 117   19:00   51.9    31    1.0   221      2.1   822.7    0.00       0    57.4
 117   19:10   50.4    36    1.2   247      2.7   822.8    0.00       0    57.4
 117   19:20   50.3    34    1.4   260      3.3   823.0    0.00       0    57.5
 117   19:30   50.8    33    1.2   262      2.4   823.1    0.00       0    57.5
 117   19:40   50.5    34    0.6   222      1.7   823.2    0.00       0    57.4
 117   19:50   50.1    34    0.5   295      2.4   823.4    0.00       0    57.5
 117   20:00   49.9    35    1.7   291      4.5   823.5    0.00       0    57.4
 117   20:10   49.9    35    3.0   295      4.5   823.6    0.00       0    57.4
 117   20:20   49.4    36    2.4   317      4.2   823.7    0.00       0    57.4
 117   20:30   49.2    35    3.1   327      6.2   823.8    0.00       0    57.3
 117   20:40   49.2    36    2.3   306      5.2   823.8    0.00       0    57.3
 117   20:50   47.3    41    1.2   253      3.0   823.8    0.00       0    57.3
 117   21:00   47.2    40    2.2   259      4.7   823.9    0.00       0    57.2
 117   21:10   47.5    40    3.7   249      7.5   823.9    0.00       0    57.1
 117   21:20   49.7    35    4.5   267      7.4   824.0    0.00       0    57.1
 117   21:30   49.0    36    3.3   288      4.9   824.1    0.00       0    57.0
 117   21:40   48.3    38    3.0   281      4.2   824.1    0.00       0    57.0
 117   21:50   47.9    39    3.4   274      6.8   824.1    0.00       0    56.9
 117   22:00   48.2    38    2.9   270      5.8   824.2    0.00       0    56.9
 117   22:10   48.8    37    3.3   279      5.8   824.2    0.00       0    56.8
 117   22:20   48.3    39    2.5   276      4.7   824.2    0.00       0    56.7
 117   22:30   47.4    41    4.0   279      6.6   824.2    0.00       0    56.6
 117   22:40   47.5    41    4.5   272      7.3   824.1    0.00       0    56.6
 117   22:50   47.3    42    3.9   279      6.4   824.2    0.00       0    56.5
 117   23:00   47.4    42    3.8   280      6.2   824.2    0.00       0    56.4
 117   23:10   47.0    44    2.8   270      6.4   824.3    0.00       0    56.4

Return to Pioche, Nevada graphs page.


Western Regional Climate Center,wrcc@dri.edu